KGRI

Central Nebraska Regional Airport

Grand Island, Nebraska, USA
KGRI 221319Z 2213/2312 36020G27KT 6SM -SN OVC010 TEMPO 2214/2217 OVC008 FM221700 35023G34KT P6SM -SN OVC015 FM222100 34025G35KT P6SM -SN OVC022 FM230400 35019G24KT P6SM OVC012 FM230500 34016KT P6SM BKN035
Issued Valid From Valid To
Jan-22 @ 13:19 UTC
(4 hours ago)
Jan-22 @ 13:00 UTC
(4 hours ago)
Jan-23 @ 12:00 UTC
(in 19 hours)
Jan-22 @ 13:00 to Jan-22 @ 17:00
KGRI 221319Z 2213/2312 36020G27KT 6SM -SN OVC010
Wind Visibility Clouds Conditions
360° at 20 knots
 Gusting to 27 knots
6 miles
  • Overcast at 1,000' AGL
  • Light Snow
Temporary Jan-22 @ 14:00 to Jan-22 @ 17:00
TEMPO 2214/2217 OVC008
Clouds
  • Overcast at 800' AGL
From Jan-22 @ 17:00 to Jan-22 @ 21:00
FM221700 35023G34KT P6SM -SN OVC015
Wind Visibility Clouds Conditions
350° at 23 knots
 Gusting to 34 knots
Greater than 6 miles
  • Overcast at 1,500' AGL
  • Light Snow
From Jan-22 @ 21:00 to Jan-23 @ 04:00
FM222100 34025G35KT P6SM -SN OVC022
Wind Visibility Clouds Conditions
340° at 25 knots
 Gusting to 35 knots
Greater than 6 miles
  • Overcast at 2,200' AGL
  • Light Snow
From Jan-23 @ 04:00 to Jan-23 @ 05:00
FM230400 35019G24KT P6SM OVC012
Wind Visibility Clouds
350° at 19 knots
 Gusting to 24 knots
Greater than 6 miles
  • Overcast at 1,200' AGL
From Jan-23 @ 05:00 to Jan-23 @ 12:00
FM230500 34016KT P6SM BKN035
Wind Visibility Clouds
340° at 16 knots Greater than 6 miles
  • Broken at 3,500' AGL
KGRI 221319Z 2213/2312 36020G27KT 6SM -SN OVC010 TEMPO 2214/2217 OVC008 FM221700 35023G34KT P6SM -SN OVC015 FM222100 34025G35KT P6SM -SN OVC022 FM230400 35019G24KT P6SM OVC012 FM230500 34016KT P6SM BKN035
Issued Jan-22 @ 13:19 UTC
(4 hours ago)
Valid From Jan-22 @ 13:00 UTC
(4 hours ago)
Valid To Jan-23 @ 12:00 UTC
(in 19 hours)
Jan-22 @ 13:00 - Jan-22 @ 17:00
Wind Visibility
360° at 20 knots
 Gusting to 27 knots
6 miles
Clouds
  • Overcast at 1,000' AGL
Conditions
  • Light Snow
Temporary Jan-22 @ 14:00 - Jan-22 @ 17:00
Clouds
  • Overcast at 800' AGL
From Jan-22 @ 17:00 - Jan-22 @ 21:00
Wind Visibility
350° at 23 knots
 Gusting to 34 knots
Greater than 6 miles
Clouds
  • Overcast at 1,500' AGL
Conditions
  • Light Snow
From Jan-22 @ 21:00 - Jan-23 @ 04:00
Wind Visibility
340° at 25 knots
 Gusting to 35 knots
Greater than 6 miles
Clouds
  • Overcast at 2,200' AGL
Conditions
  • Light Snow
From Jan-23 @ 04:00 - Jan-23 @ 05:00
Wind Visibility
350° at 19 knots
 Gusting to 24 knots
Greater than 6 miles
Clouds
  • Overcast at 1,200' AGL
From Jan-23 @ 05:00 - Jan-23 @ 12:00
Wind Visibility
340° at 16 knots Greater than 6 miles
Clouds
  • Broken at 3,500' AGL